createdAt,value
2023-05-26T06:27:35.214Z,101058.99
2023-05-26T06:30:02.997Z,101064.56
2023-05-26T06:32:30.985Z,101073.35
2023-05-26T06:34:58.204Z,101075.13
2023-05-26T06:37:25.256Z,101078.27
2023-05-26T06:39:52.308Z,101084.27
2023-05-26T06:42:22.314Z,101088.21
2023-05-26T06:44:51.475Z,101087.48
2023-05-26T06:47:25.187Z,101088.70
2023-05-26T06:50:00.566Z,101086.38
2023-05-26T06:52:27.688Z,101087.73
2023-05-26T06:54:54.751Z,101092.12
2023-05-26T06:57:21.917Z,101093.39
2023-05-26T06:59:49.070Z,101093.45
2023-05-26T07:02:16.539Z,101094.88
2023-05-26T07:04:45.112Z,101099.09
2023-05-26T07:07:12.387Z,101099.82
2023-05-26T07:09:39.503Z,101103.39
2023-05-26T07:12:11.456Z,101105.89
2023-05-26T07:14:48.038Z,101108.39
2023-05-26T07:17:15.875Z,101111.45
2023-05-26T07:19:44.903Z,101116.61
2023-05-26T07:22:12.908Z,101117.61
2023-05-26T07:24:50.668Z,101125.58
2023-05-26T07:27:26.154Z,101129.63
2023-05-26T07:29:53.253Z,101135.02
2023-05-26T07:32:20.373Z,101130.00
2023-05-26T07:34:47.917Z,101130.16
2023-05-26T07:37:15.010Z,101130.75
2023-05-26T07:39:42.027Z,101129.85
2023-05-26T07:42:09.215Z,101133.08
2023-05-26T07:44:36.457Z,101131.23
2023-05-26T07:47:03.613Z,101134.39
2023-05-26T07:49:30.598Z,101137.05
2023-05-26T07:51:57.805Z,101139.66
2023-05-26T07:54:24.809Z,101144.55
2023-05-26T07:56:55.613Z,101140.73
2023-05-26T07:59:22.840Z,101144.13
2023-05-26T08:01:50.185Z,101149.65
2023-05-26T08:04:17.610Z,101144.85
2023-05-26T08:06:44.565Z,101150.21
2023-05-26T08:09:12.319Z,101151.17
2023-05-26T08:11:39.444Z,101151.42
2023-05-26T08:14:06.409Z,101151.63
2023-05-26T08:16:33.590Z,101149.91
2023-05-26T08:19:01.018Z,101149.25
2023-05-26T08:21:27.975Z,101152.84
2023-05-26T08:23:54.970Z,101152.52
2023-05-26T08:26:21.943Z,101155.21
2023-05-26T08:28:48.954Z,101161.21
2023-05-26T08:31:15.982Z,101162.38
2023-05-26T08:33:43.147Z,101165.61
2023-05-26T08:36:10.607Z,101164.23
2023-05-26T08:38:37.905Z,101164.34
2023-05-26T08:41:07.011Z,101171.54
2023-05-26T08:43:46.714Z,101177.52
2023-05-26T08:46:16.810Z,101182.36
2023-05-26T08:48:45.939Z,101184.77
2023-05-26T08:51:13.725Z,101185.23
2023-05-26T08:53:41.544Z,101189.10
2023-05-26T08:56:10.530Z,101189.19
2023-05-26T08:58:38.196Z,101190.20
2023-05-26T09:01:06.400Z,101190.99
2023-05-26T09:03:33.515Z,101191.67
2023-05-26T09:06:00.604Z,101195.60
2023-05-26T09:08:27.655Z,101198.14
2023-05-26T09:10:55.079Z,101198.30
2023-05-26T09:13:25.938Z,101200.91
2023-05-26T09:16:02.798Z,101202.77
2023-05-26T09:18:42.481Z,101200.59
2023-05-26T09:21:09.608Z,101202.30
2023-05-26T09:23:36.490Z,101200.97
2023-05-26T09:26:07.391Z,101201.08
2023-05-26T09:28:34.476Z,101202.23
2023-05-26T09:31:01.645Z,101205.98
2023-05-26T09:33:28.789Z,101207.94
2023-05-26T09:35:55.836Z,101209.27
2023-05-26T09:38:22.889Z,101211.40
2023-05-26T09:40:51.062Z,101210.63
2023-05-26T09:43:20.602Z,101212.38
2023-05-26T09:45:47.721Z,101215.31
2023-05-26T09:48:16.109Z,101217.55
2023-05-26T09:50:43.286Z,101219.52
2023-05-26T09:53:11.500Z,101219.89
2023-05-26T09:55:44.052Z,101222.98
2023-05-26T09:58:13.754Z,101224.58
2023-05-26T10:00:42.770Z,101228.00
2023-05-26T10:03:11.479Z,101226.98
2023-05-26T10:05:40.986Z,101226.41
2023-05-26T10:08:09.154Z,101232.16
2023-05-26T10:10:36.599Z,101231.63
2023-05-26T10:13:05.234Z,101234.95
2023-05-26T10:15:32.941Z,101235.73
2023-05-26T10:18:02.082Z,101234.41
2023-05-26T10:20:30.934Z,101237.39
2023-05-26T10:23:18.873Z,101241.48
2023-05-26T10:26:03.080Z,101243.02
2023-05-26T10:28:48.193Z,101241.89
2023-05-26T10:31:33.023Z,101244.14
2023-05-26T10:34:00.593Z,101248.57
2023-05-26T10:36:30.180Z,101248.25
2023-05-26T10:38:57.162Z,101252.98
2023-05-26T10:41:34.218Z,101255.27
2023-05-26T10:44:03.286Z,101253.42
2023-05-26T10:47:03.913Z,101255.77
2023-05-26T10:49:36.723Z,101258.55
2023-05-26T10:52:14.907Z,101259.34
2023-05-26T10:54:43.666Z,101261.05
2023-05-26T10:57:36.282Z,101263.24
2023-05-26T11:00:38.980Z,101265.14
2023-05-26T11:03:47.294Z,101271.58
2023-05-26T11:06:16.842Z,101267.24
2023-05-26T11:08:49.756Z,101269.36
2023-05-26T11:11:31.066Z,101273.40
2023-05-26T11:14:06.218Z,101274.62
2023-05-26T11:16:37.886Z,101277.64
2023-05-26T11:19:07.198Z,101278.01
2023-05-26T11:21:37.202Z,101283.55
2023-05-26T11:24:06.264Z,101282.05
2023-05-26T11:26:35.123Z,101284.23
2023-05-26T11:29:06.143Z,101289.30
2023-05-26T11:31:34.241Z,101287.43
2023-05-26T11:34:02.478Z,101292.33
2023-05-26T11:36:30.195Z,101293.34
2023-05-26T11:39:03.587Z,101297.28
2023-05-26T11:41:31.230Z,101292.96
2023-05-26T11:43:59.443Z,101294.51
2023-05-26T11:46:28.723Z,101294.17
2023-05-26T11:48:55.881Z,101292.31
2023-05-26T11:51:23.656Z,101290.42
2023-05-26T11:53:55.892Z,101287.23
2023-05-26T11:56:23.255Z,101285.34
2023-05-26T11:58:55.408Z,101284.12
2023-05-26T12:01:23.817Z,101283.63
2023-05-26T12:03:52.855Z,101278.95
2023-05-26T12:08:55.362Z,101279.85
2023-05-26T12:11:24.682Z,101277.13
2023-05-26T12:14:04.946Z,101274.37
2023-05-26T12:16:39.061Z,101274.11
2023-05-26T12:19:09.377Z,101273.31
2023-05-26T12:21:47.910Z,101272.73
2023-05-26T12:24:29.190Z,101271.20
2023-05-26T12:26:56.967Z,101270.23
2023-05-26T12:29:24.073Z,101270.13
2023-05-26T12:31:53.200Z,101268.42
2023-05-26T12:34:30.513Z,101265.23
2023-05-26T12:36:57.893Z,101264.16
2023-05-26T12:39:25.119Z,101259.90
2023-05-26T12:41:52.509Z,101258.53
2023-05-26T12:44:19.663Z,101257.42
2023-05-26T12:46:49.965Z,101254.02
2023-05-26T12:49:17.177Z,101251.10
2023-05-26T12:51:44.577Z,101251.36
2023-05-26T12:54:13.418Z,101249.93
2023-05-26T12:56:41.629Z,101248.14
2023-05-26T12:59:20.288Z,101246.64
2023-05-26T13:01:49.229Z,101246.36
2023-05-26T13:04:17.975Z,101242.96
2023-05-26T13:06:45.218Z,101244.73
2023-05-26T13:09:14.443Z,101243.17
2023-05-26T13:11:41.423Z,101247.04
2023-05-26T13:14:08.497Z,101243.83
2023-05-26T13:16:35.853Z,101243.77
2023-05-26T13:19:02.863Z,101245.79
2023-05-26T13:21:31.110Z,101248.19
2023-05-26T13:24:02.458Z,101251.23
2023-05-26T13:26:33.526Z,101249.84
2023-05-26T13:29:00.709Z,101248.83
2023-05-26T13:31:27.825Z,101246.80
2023-05-26T13:33:54.914Z,101244.56
2023-05-26T13:36:26.273Z,101245.43
2023-05-26T13:38:53.394Z,101246.40
2023-05-26T13:41:20.704Z,101245.35
2023-05-26T13:43:48.465Z,101240.20
2023-05-26T13:46:15.800Z,101233.61
2023-05-26T13:48:42.986Z,101228.83
2023-05-26T13:51:10.029Z,101228.05
2023-05-26T13:53:38.710Z,101223.85
2023-05-26T13:56:24.944Z,101222.45
2023-05-26T13:58:53.818Z,101218.34
2023-05-26T14:01:34.991Z,101216.42
2023-05-26T14:04:05.204Z,101214.89
2023-05-26T14:06:39.232Z,101211.58
2023-05-26T14:09:10.121Z,101205.04
2023-05-26T14:11:40.541Z,101208.50
2023-05-26T14:14:07.996Z,101203.27
2023-05-26T14:16:36.657Z,101200.39
2023-05-26T14:19:12.797Z,101196.83
2023-05-26T14:22:08.495Z,101193.42
2023-05-26T14:24:39.290Z,101200.20
2023-05-26T14:27:07.774Z,101197.41
2023-05-26T14:29:34.908Z,101200.30
2023-05-26T14:32:02.155Z,101203.81
2023-05-26T14:34:29.638Z,101201.10
2023-05-26T14:36:57.262Z,101202.00
2023-05-26T14:39:27.352Z,101199.50
2023-05-26T14:42:01.830Z,101207.50
2023-05-26T14:44:29.608Z,101209.45
2023-05-26T14:46:57.636Z,101212.27
2023-05-26T14:49:25.018Z,101216.38
2023-05-26T14:51:52.769Z,101212.65
2023-05-26T14:54:21.587Z,101212.48
2023-05-26T14:56:49.214Z,101217.46
2023-05-26T14:59:18.570Z,101220.48
2023-05-26T15:01:46.215Z,101223.27
2023-05-26T15:04:15.374Z,101225.09
2023-05-26T15:06:44.527Z,101226.08
2023-05-26T15:09:14.643Z,101226.20
2023-05-26T15:11:44.188Z,101228.50
2023-05-26T15:14:11.261Z,101229.59
2023-05-26T15:16:40.227Z,101225.86
2023-05-26T15:19:08.215Z,101226.61
2023-05-26T15:21:38.044Z,101223.59
2023-05-26T15:24:09.066Z,101220.34
2023-05-26T15:26:37.582Z,101222.10
2023-05-26T15:29:04.823Z,101222.42
2023-05-26T15:31:33.006Z,101216.89
2023-05-26T15:34:00.412Z,101216.13
2023-05-26T15:36:27.584Z,101213.35
2023-05-26T15:38:55.236Z,101210.33
2023-05-26T15:41:22.740Z,101207.04
2023-05-26T15:43:51.230Z,101203.66
2023-05-26T15:46:19.125Z,101199.36
2023-05-26T15:48:46.927Z,101199.41
2023-05-26T15:51:14.590Z,101201.82
2023-05-26T15:53:42.042Z,101199.70
2023-05-26T15:56:09.608Z,101200.44
2023-05-26T15:58:36.756Z,101196.40
2023-05-26T16:01:04.822Z,101194.17
2023-05-26T16:03:33.105Z,101199.13
2023-05-26T16:06:02.205Z,101201.62
2023-05-26T16:08:29.280Z,101196.08
2023-05-26T16:10:56.583Z,101191.52
2023-05-26T16:13:25.440Z,101192.84
2023-05-26T16:15:56.035Z,101194.55
2023-05-26T16:18:23.029Z,101196.13
2023-05-26T16:20:51.888Z,101193.54
2023-05-26T16:23:19.932Z,101192.66
2023-05-26T16:25:49.645Z,101193.85
2023-05-26T16:28:17.494Z,101190.17
2023-05-26T16:30:44.750Z,101195.17
2023-05-26T16:33:12.013Z,101194.42
2023-05-26T16:35:44.731Z,101194.38
2023-05-26T16:38:11.998Z,101193.35
2023-05-26T16:40:39.522Z,101191.08
2023-05-26T16:43:07.278Z,101193.63
2023-05-26T16:45:34.902Z,101195.59
2023-05-26T16:48:02.285Z,101200.81
2023-05-26T16:50:29.472Z,101203.26
2023-05-26T16:52:56.468Z,101201.55
2023-05-26T16:55:24.395Z,101202.88
2023-05-26T16:57:51.494Z,101203.13
2023-05-26T17:00:19.028Z,101202.92
2023-05-26T17:02:49.557Z,101206.10
2023-05-26T17:05:17.201Z,101209.80
2023-05-26T17:07:44.184Z,101214.17
2023-05-26T17:10:12.068Z,101214.38
2023-05-26T17:12:39.113Z,101213.73
2023-05-26T17:15:07.243Z,101218.05
2023-05-26T17:17:34.746Z,101217.72
2023-05-26T17:20:02.053Z,101218.02
2023-05-26T17:22:29.886Z,101216.80
2023-05-26T17:24:56.921Z,101216.65
2023-05-26T17:27:24.914Z,101220.48
2023-05-26T17:29:52.113Z,101217.99
2023-05-26T17:32:19.595Z,101218.70
2023-05-26T17:34:49.535Z,101221.56
2023-05-26T17:37:16.857Z,101224.00
2023-05-26T17:39:45.481Z,101225.48
2023-05-26T17:42:12.581Z,101228.73
2023-05-26T17:44:39.634Z,101225.63
2023-05-26T17:47:07.031Z,101229.23
2023-05-26T17:49:34.949Z,101226.23
2023-05-26T17:52:02.007Z,101231.13
2023-05-26T17:54:30.246Z,101229.13
2023-05-26T17:56:58.963Z,101229.51
2023-05-26T17:59:26.930Z,101225.86
2023-05-26T18:01:54.416Z,101223.21
2023-05-26T18:04:22.256Z,101224.84
2023-05-26T18:06:49.274Z,101222.51
2023-05-26T18:09:17.139Z,101219.02
2023-05-26T18:11:48.441Z,101214.71
2023-05-26T18:14:16.250Z,101210.59
2023-05-26T18:16:45.618Z,101212.63
2023-05-26T18:19:15.788Z,101212.40
2023-05-26T18:21:42.856Z,101213.40
2023-05-26T18:24:09.830Z,101212.59
2023-05-26T18:26:36.825Z,101213.05
2023-05-26T18:29:06.410Z,101213.20
2023-05-26T18:31:33.836Z,101212.55
2023-05-26T18:34:12.204Z,101207.75
2023-05-26T18:36:43.959Z,101207.65
2023-05-26T18:39:12.314Z,101205.95
2023-05-26T18:41:40.756Z,101207.76
2023-05-26T18:44:08.707Z,101206.42
2023-05-26T18:46:36.135Z,101212.24
2023-05-26T18:49:03.312Z,101210.33
2023-05-26T18:51:30.413Z,101211.40
2023-05-26T18:53:59.794Z,101211.23
2023-05-26T18:56:28.830Z,101208.84
2023-05-26T18:58:56.221Z,101205.97
2023-05-26T19:01:25.820Z,101208.30
2023-05-26T19:03:54.468Z,101215.06
2023-05-26T19:06:26.720Z,101216.23
2023-05-26T19:08:55.677Z,101218.63
2023-05-26T19:11:24.045Z,101219.95
2023-05-26T19:13:53.285Z,101221.59
2023-05-26T19:16:21.763Z,101225.33
2023-05-26T19:18:55.309Z,101224.38
2023-05-26T19:21:26.468Z,101225.73
2023-05-26T19:23:58.551Z,101219.93
2023-05-26T19:26:27.287Z,101219.58
2023-05-26T19:29:04.102Z,101218.08
2023-05-26T19:31:34.895Z,101219.39
2023-05-26T19:34:02.694Z,101220.57
2023-05-26T19:36:30.460Z,101222.91
2023-05-26T19:38:58.052Z,101222.16
2023-05-26T19:43:53.633Z,101225.89
2023-05-26T19:46:20.654Z,101223.72
2023-05-26T19:48:47.926Z,101225.61
2023-05-26T19:51:14.828Z,101225.46
2023-05-26T19:53:41.797Z,101229.06
2023-05-26T19:56:08.762Z,101229.97
2023-05-26T19:58:35.804Z,101230.18
2023-05-26T20:01:02.915Z,101231.36
2023-05-26T20:03:30.170Z,101226.67
2023-05-26T20:05:57.588Z,101232.48
2023-05-26T20:08:24.536Z,101232.63
2023-05-26T20:10:51.489Z,101235.19
2023-05-26T20:13:19.654Z,101232.05
2023-05-26T20:15:47.063Z,101235.58
2023-05-26T20:18:14.040Z,101235.10
2023-05-26T20:20:41.137Z,101238.89
2023-05-26T20:23:08.250Z,101236.66
2023-05-26T20:25:35.398Z,101236.73
2023-05-26T20:28:02.342Z,101236.10
2023-05-26T20:30:29.398Z,101236.15
2023-05-26T20:32:56.525Z,101239.98
2023-05-26T20:35:23.810Z,101240.20
2023-05-26T20:37:50.932Z,101240.94
2023-05-26T20:40:23.436Z,101239.66
2023-05-26T20:42:51.465Z,101240.08
2023-05-26T20:45:19.199Z,101235.92
2023-05-26T20:47:46.912Z,101234.60
2023-05-26T20:50:14.149Z,101236.63
2023-05-26T20:52:41.511Z,101236.26
2023-05-26T20:55:09.372Z,101233.49
2023-05-26T20:57:36.412Z,101233.44
2023-05-26T21:00:04.259Z,101231.77
2023-05-26T21:02:31.285Z,101231.57
2023-05-26T21:04:58.299Z,101230.23
2023-05-26T21:07:26.642Z,101224.26
2023-05-26T21:09:53.671Z,101221.91
2023-05-26T21:12:20.590Z,101224.40
2023-05-26T21:14:48.072Z,101221.04
2023-05-26T21:17:15.504Z,101219.80
2023-05-26T21:19:42.537Z,101221.02
2023-05-26T21:22:09.530Z,101221.92
2023-05-26T21:24:36.421Z,101225.70
2023-05-26T21:27:03.599Z,101225.59
2023-05-26T21:29:30.640Z,101225.30
2023-05-26T21:31:57.593Z,101225.05
2023-05-26T21:34:24.617Z,101226.48
2023-05-26T21:36:51.706Z,101227.66
2023-05-26T21:39:18.754Z,101228.56
2023-05-26T21:41:45.818Z,101228.67
2023-05-26T21:44:12.800Z,101227.19
2023-05-26T21:46:40.264Z,101228.84
2023-05-26T21:49:07.512Z,101224.10
2023-05-26T21:51:38.244Z,101223.58
2023-05-26T21:54:05.622Z,101223.83
2023-05-26T21:56:33.127Z,101218.15
2023-05-26T21:59:00.119Z,101219.80
2023-05-26T22:01:28.052Z,101222.59
2023-05-26T22:03:55.161Z,101221.88
2023-05-26T22:06:22.176Z,101222.70
2023-05-26T22:08:49.033Z,101220.09
2023-05-26T22:11:15.958Z,101217.27
2023-05-26T22:13:43.145Z,101217.77
2023-05-26T22:16:10.182Z,101214.86
2023-05-26T22:18:37.498Z,101211.48
2023-05-26T22:21:04.681Z,101209.95
2023-05-26T22:23:31.682Z,101205.80
2023-05-26T22:25:58.789Z,101201.53
2023-05-26T22:28:26.467Z,101199.44
2023-05-26T22:31:03.451Z,101199.88
2023-05-26T22:33:30.831Z,101200.83
2023-05-26T22:35:57.994Z,101199.39
2023-05-26T22:38:26.702Z,101198.55
2023-05-26T22:40:53.884Z,101198.77
2023-05-26T22:43:21.084Z,101195.36
2023-05-26T22:45:47.979Z,101191.45
2023-05-26T22:48:15.096Z,101186.19
2023-05-26T22:50:42.586Z,101180.02
2023-05-26T22:53:09.581Z,101175.71
2023-05-26T22:55:47.075Z,101171.14
2023-05-26T22:58:18.428Z,101169.15
2023-05-26T23:00:45.605Z,101167.07
2023-05-26T23:03:12.625Z,101168.35
2023-05-26T23:05:39.775Z,101171.54
2023-05-26T23:08:06.662Z,101172.33
2023-05-26T23:10:33.700Z,101170.84
2023-05-26T23:13:02.827Z,101170.35
2023-05-26T23:15:32.240Z,101177.86
2023-05-26T23:17:59.388Z,101179.77
2023-05-26T23:20:27.779Z,101181.33
2023-05-26T23:22:54.745Z,101181.80
2023-05-26T23:25:22.116Z,101178.77
2023-05-26T23:27:49.142Z,101174.55
2023-05-26T23:30:16.521Z,101169.29
2023-05-26T23:32:43.504Z,101163.87
2023-05-26T23:35:11.703Z,101158.02
2023-05-26T23:37:39.433Z,101158.29
2023-05-26T23:40:08.144Z,101150.79
2023-05-26T23:42:35.332Z,101145.09
2023-05-26T23:45:02.432Z,101142.75
2023-05-26T23:47:29.426Z,101140.67
2023-05-26T23:49:56.497Z,101145.09
2023-05-26T23:52:23.362Z,101141.20
2023-05-26T23:54:50.385Z,101143.04
2023-05-26T23:57:17.500Z,101139.69
2023-05-26T23:59:44.543Z,101143.57
